Seahouses, United Kingdom
Current Conditions -  °F | °C
As of 11:50 PM on Wednesday 22 Oct 2014 (Local Time) from EGQM Reporting Station
Broken Clouds Broken Clouds  
Wind Chill: 54°   Ceiling: 15000
Heat Index: 54°   Visibility: 6mi
Dew Point: 48°   Wind: 20mph
Humidity: 82%   Direction: 230°SW
Pressure: 29.91"   Gusts: NA
Location:  55.58°N, 1.65°W
Report Text: EGQM 222250Z AUTO 23017KT 9999 SCT024/// BKN150/// BKN220/// 12/09 Q1013
Loading
Personal Weather Stations






























Interactive Weather Map
Tropical Storm Tracking
New forecast layout! Learn more

10-Day Weather Forecast

Advertisements
Track Severe Weather on mobile